createdAt,value
2022-10-11T00:00:07.459Z,3.70
2022-10-11T00:02:35.366Z,3.63
2022-10-11T00:05:04.827Z,3.30
2022-10-11T00:07:32.598Z,3.15
2022-10-11T00:10:00.521Z,3.00
2022-10-11T00:12:28.297Z,3.95
2022-10-11T00:14:56.021Z,4.40
2022-10-11T00:17:24.008Z,3.78
2022-10-11T00:19:51.764Z,3.45
2022-10-11T00:22:20.874Z,3.63
2022-10-11T00:24:48.579Z,3.05
2022-10-11T00:27:16.415Z,3.80
2022-10-11T00:29:44.183Z,3.47
2022-10-11T00:32:12.012Z,3.80
2022-10-11T00:34:39.774Z,3.45
2022-10-11T00:37:07.528Z,3.33
2022-10-11T00:39:36.655Z,2.55
2022-10-11T00:42:05.106Z,2.70
2022-10-11T00:44:34.022Z,2.43
2022-10-11T00:47:04.118Z,2.40
2022-10-11T00:49:36.819Z,2.72
2022-10-11T00:52:08.198Z,3.05
2022-10-11T00:54:42.791Z,2.50
2022-10-11T00:57:15.095Z,2.15
2022-10-11T00:59:46.277Z,2.50
2022-10-11T01:02:15.387Z,2.78
2022-10-11T01:04:43.734Z,2.28
2022-10-11T01:07:12.751Z,2.07
2022-10-11T01:09:41.842Z,2.17
2022-10-11T01:12:16.751Z,2.00
2022-10-11T01:15:00.885Z,2.20
2022-10-11T01:17:37.905Z,2.13
2022-10-11T01:20:26.664Z,2.47
2022-10-11T01:23:29.642Z,2.20
2022-10-11T01:26:14.103Z,2.55
2022-10-11T01:28:50.166Z,2.38
2022-10-11T01:31:25.065Z,2.47
2022-10-11T01:33:56.679Z,2.15
2022-10-11T01:36:32.564Z,2.30
2022-10-11T01:39:05.296Z,2.33
2022-10-11T01:41:48.229Z,2.65
2022-10-11T01:44:16.665Z,2.20
2022-10-11T01:46:45.777Z,2.67
2022-10-11T01:49:13.633Z,2.13
2022-10-11T01:51:47.132Z,1.85
2022-10-11T01:54:56.666Z,2.17
2022-10-11T01:57:49.770Z,2.38
2022-10-11T02:00:20.581Z,2.40
2022-10-11T02:03:06.571Z,2.20
2022-10-11T02:05:40.082Z,2.35
2022-10-11T02:08:15.121Z,2.58
2022-10-11T02:10:47.366Z,2.47
2022-10-11T02:13:22.529Z,2.95
2022-10-11T02:15:51.573Z,2.88
2022-10-11T02:18:23.921Z,2.90
2022-10-11T02:20:52.909Z,3.13
2022-10-11T02:23:26.517Z,2.50
2022-10-11T02:25:56.098Z,2.85
2022-10-11T02:28:27.678Z,2.47
2022-10-11T02:30:57.695Z,2.55
2022-10-11T02:33:32.696Z,4.15
2022-10-11T02:36:07.428Z,4.18
2022-10-11T02:38:41.178Z,4.03
2022-10-11T02:41:16.273Z,3.70
2022-10-11T02:43:49.082Z,3.30
2022-10-11T02:46:17.828Z,2.92
2022-10-11T02:48:46.998Z,3.90
2022-10-11T02:51:15.394Z,3.15
2022-10-11T02:53:43.151Z,3.88
2022-10-11T02:56:11.102Z,3.85
2022-10-11T02:58:38.871Z,3.35
2022-10-11T03:01:06.969Z,3.63
2022-10-11T03:03:34.770Z,3.40
2022-10-11T03:06:05.503Z,3.78
2022-10-11T03:08:33.461Z,3.70
2022-10-11T03:11:01.255Z,3.30
2022-10-11T03:13:29.079Z,3.55
2022-10-11T03:16:03.402Z,3.28
2022-10-11T03:18:31.941Z,3.38
2022-10-11T03:20:59.722Z,3.75
2022-10-11T03:23:28.824Z,4.07
2022-10-11T03:25:56.729Z,4.60
2022-10-11T03:28:24.503Z,4.53
2022-10-11T03:30:52.492Z,3.80
2022-10-11T03:33:20.804Z,4.15
2022-10-11T03:35:49.598Z,4.45
2022-10-11T03:38:19.944Z,4.30
2022-10-11T03:40:49.834Z,3.97
2022-10-11T03:43:18.370Z,4.18
2022-10-11T03:45:46.144Z,4.72
2022-10-11T03:48:13.969Z,4.68
2022-10-11T03:50:41.727Z,4.57
2022-10-11T03:53:09.612Z,4.20
2022-10-11T03:55:40.067Z,4.35
2022-10-11T03:58:09.386Z,4.18
2022-10-11T04:03:04.940Z,4.60
2022-10-11T04:05:32.721Z,4.38
2022-10-11T04:08:00.454Z,4.35
2022-10-11T04:10:28.309Z,3.92
2022-10-11T04:12:56.039Z,4.10
2022-10-11T04:15:25.136Z,4.03
2022-10-11T04:17:52.881Z,4.50
2022-10-11T04:20:20.685Z,3.80
2022-10-11T04:22:48.422Z,3.95
2022-10-11T04:25:16.339Z,3.92
2022-10-11T04:27:44.055Z,3.45
2022-10-11T04:30:13.446Z,3.63
2022-10-11T04:35:10.609Z,3.33
2022-10-11T04:37:38.794Z,3.15
2022-10-11T04:40:07.949Z,3.20
2022-10-11T04:42:35.922Z,3.28
2022-10-11T04:45:03.710Z,2.92
2022-10-11T04:47:31.460Z,3.53
2022-10-11T04:50:00.573Z,3.35
2022-10-11T04:52:28.295Z,3.15
2022-10-11T04:54:56.037Z,3.35
2022-10-11T04:57:23.793Z,3.15
2022-10-11T04:59:51.544Z,3.20
2022-10-11T05:02:19.598Z,3.20
2022-10-11T05:04:47.921Z,2.90
2022-10-11T05:07:16.994Z,2.55
2022-10-11T05:09:44.728Z,2.95
2022-10-11T05:12:12.467Z,2.78
2022-10-11T05:14:40.235Z,2.83
2022-10-11T05:17:08.001Z,2.90
2022-10-11T05:19:36.750Z,2.97
2022-10-11T05:22:04.988Z,3.75
2022-10-11T05:24:34.277Z,2.28
2022-10-11T05:27:03.574Z,2.85
2022-10-11T05:29:31.647Z,2.53
2022-10-11T05:31:59.492Z,2.72
2022-10-11T05:34:27.256Z,3.33
2022-10-11T05:36:56.382Z,3.10
2022-10-11T05:39:24.164Z,4.05
2022-10-11T05:41:53.272Z,3.30
2022-10-11T05:44:20.993Z,2.97
2022-10-11T05:46:48.748Z,3.35
2022-10-11T05:49:16.509Z,2.70
2022-10-11T05:51:44.442Z,2.97
2022-10-11T05:54:12.487Z,3.03
2022-10-11T05:56:40.247Z,3.38
2022-10-11T05:59:09.347Z,2.85
2022-10-11T06:01:37.144Z,2.97
2022-10-11T06:04:05.387Z,3.40
2022-10-11T06:06:33.159Z,3.08
2022-10-11T06:09:00.905Z,2.90
2022-10-11T06:11:29.015Z,3.20
2022-10-11T06:13:58.972Z,3.28
2022-10-11T06:16:28.659Z,3.00
2022-10-11T06:18:57.326Z,5.30
2022-10-11T06:21:25.864Z,3.15
2022-10-11T06:24:00.870Z,3.70
2022-10-11T06:26:29.798Z,3.50
2022-10-11T06:28:57.624Z,3.08
2022-10-11T06:31:25.608Z,2.92
2022-10-11T06:33:54.735Z,3.00
2022-10-11T06:36:22.868Z,3.72
2022-10-11T06:38:52.570Z,2.90
2022-10-11T06:41:24.575Z,3.80
2022-10-11T06:43:52.577Z,4.22
2022-10-11T06:46:22.095Z,3.08
2022-10-11T06:48:50.929Z,3.65
2022-10-11T06:51:22.109Z,3.10
2022-10-11T06:53:50.691Z,3.00
2022-10-11T06:56:19.187Z,3.38
2022-10-11T06:58:47.296Z,2.70
2022-10-11T07:01:18.930Z,3.53
2022-10-11T07:03:47.208Z,3.10
2022-10-11T07:06:17.504Z,3.20
2022-10-11T07:08:47.395Z,3.22
2022-10-11T07:11:18.043Z,3.33
2022-10-11T07:13:50.825Z,3.58
2022-10-11T07:16:19.646Z,4.43
2022-10-11T07:18:48.092Z,4.10
2022-10-11T07:21:16.955Z,4.35
2022-10-11T07:23:46.085Z,5.00
2022-10-11T07:26:14.228Z,6.50
2022-10-11T07:28:42.915Z,5.87
2022-10-11T07:31:13.104Z,6.32
2022-10-11T07:33:40.883Z,10.68
2022-10-11T07:36:09.739Z,14.68
2022-10-11T07:38:40.241Z,12.73
2022-10-11T07:41:10.286Z,12.15
2022-10-11T07:43:38.613Z,6.57
2022-10-11T07:46:07.286Z,6.10
2022-10-11T07:48:36.870Z,5.10
2022-10-11T07:51:06.654Z,4.32
2022-10-11T07:53:39.388Z,5.25
2022-10-11T07:56:09.446Z,4.10
2022-10-11T07:58:37.352Z,3.60
2022-10-11T08:01:05.908Z,3.50
2022-10-11T08:03:33.708Z,3.35
2022-10-11T08:06:03.045Z,4.72
2022-10-11T08:08:31.079Z,4.13
2022-10-11T08:10:59.151Z,4.03
2022-10-11T08:13:28.404Z,3.90
2022-10-11T08:15:56.344Z,3.50
2022-10-11T08:18:24.184Z,4.28
2022-10-11T08:20:52.011Z,4.23
2022-10-11T08:23:20.093Z,4.85
2022-10-11T08:25:48.922Z,3.38
2022-10-11T08:30:51.562Z,3.30
2022-10-11T08:33:19.430Z,4.28
2022-10-11T08:35:47.344Z,3.30
2022-10-11T08:38:15.393Z,3.53
2022-10-11T08:40:48.110Z,3.47
2022-10-11T08:43:27.951Z,3.20
2022-10-11T08:46:00.079Z,3.42
2022-10-11T08:48:34.454Z,3.33
2022-10-11T08:51:06.444Z,3.55
2022-10-11T08:53:45.536Z,3.72
2022-10-11T08:56:14.780Z,3.78
2022-10-11T08:58:48.407Z,3.00
2022-10-11T09:01:21.473Z,3.53
2022-10-11T09:03:50.068Z,3.67
2022-10-11T09:06:27.054Z,3.20
2022-10-11T09:09:06.255Z,3.75
2022-10-11T09:11:47.317Z,3.42
2022-10-11T09:14:40.692Z,3.13
2022-10-11T09:17:17.368Z,2.90
2022-10-11T09:20:20.917Z,2.53
2022-10-11T09:22:58.996Z,2.55
2022-10-11T09:25:30.651Z,2.55
2022-10-11T09:28:14.237Z,2.72
2022-10-11T09:30:48.700Z,2.42
2022-10-11T09:33:21.467Z,2.85
2022-10-11T09:35:51.383Z,2.63
2022-10-11T09:38:36.012Z,2.63
2022-10-11T09:41:12.930Z,2.58
2022-10-11T09:43:40.906Z,2.58
2022-10-11T09:46:20.881Z,2.50
2022-10-11T09:48:51.469Z,3.03
2022-10-11T09:51:22.389Z,2.80
2022-10-11T09:53:53.370Z,2.90
2022-10-11T09:56:22.259Z,2.47
2022-10-11T09:58:50.294Z,3.35
2022-10-11T10:01:25.280Z,2.40
2022-10-11T10:04:08.559Z,2.25
2022-10-11T10:06:36.586Z,2.38
2022-10-11T10:09:27.795Z,2.40
2022-10-11T10:11:56.172Z,2.50
2022-10-11T10:14:27.753Z,2.47
2022-10-11T10:17:04.874Z,2.13
2022-10-11T10:19:44.923Z,2.33
2022-10-11T10:22:19.618Z,2.28
2022-10-11T10:24:49.049Z,2.50
2022-10-11T10:27:21.283Z,1.92
2022-10-11T10:30:13.819Z,2.42
2022-10-11T10:32:49.864Z,2.15
2022-10-11T10:35:31.516Z,2.38
2022-10-11T10:38:08.768Z,1.90
2022-10-11T10:40:42.773Z,2.47
2022-10-11T10:43:19.119Z,2.35
2022-10-11T10:46:17.243Z,1.73
2022-10-11T10:51:54.191Z,2.00
2022-10-11T10:54:34.229Z,2.05
2022-10-11T10:57:05.508Z,1.85
2022-10-11T10:59:47.042Z,2.47
2022-10-11T11:02:39.603Z,2.55
2022-10-11T11:05:18.780Z,1.83
2022-10-11T11:07:52.885Z,1.70
2022-10-11T11:10:23.944Z,1.88
2022-10-11T11:12:58.356Z,2.35
2022-10-11T11:15:36.953Z,1.77
2022-10-11T11:18:20.301Z,2.25
2022-10-11T11:21:00.813Z,1.98
2022-10-11T11:23:40.955Z,2.30
2022-10-11T11:26:16.831Z,1.58
2022-10-11T11:29:12.769Z,1.92
2022-10-11T11:31:50.277Z,2.00
2022-10-11T11:34:24.215Z,2.20
2022-10-11T11:36:56.487Z,2.10
2022-10-11T11:39:30.965Z,2.05
2022-10-11T11:42:02.700Z,1.65
2022-10-11T11:44:32.272Z,1.70
2022-10-11T11:47:04.403Z,1.73
2022-10-11T11:49:36.759Z,1.83
2022-10-11T11:52:06.411Z,2.00
2022-10-11T11:54:48.837Z,2.00
2022-10-11T11:57:24.760Z,1.90
2022-10-11T12:00:00.451Z,1.98
2022-10-11T12:02:43.756Z,2.17
2022-10-11T12:05:13.765Z,2.40
2022-10-11T12:07:55.121Z,2.45
2022-10-11T12:10:29.634Z,2.17
2022-10-11T12:13:09.296Z,2.20
2022-10-11T12:15:37.298Z,2.78
2022-10-11T12:18:15.325Z,2.72
2022-10-11T12:20:44.807Z,3.05
2022-10-11T12:23:43.796Z,2.97
2022-10-11T12:29:04.669Z,2.13
2022-10-11T12:31:33.877Z,2.03
2022-10-11T12:34:21.614Z,2.30
2022-10-11T12:36:50.334Z,2.85
2022-10-11T12:39:52.700Z,2.42
2022-10-11T12:42:31.634Z,2.45
2022-10-11T12:45:34.772Z,2.25
2022-10-11T12:48:21.540Z,2.80
2022-10-11T12:51:03.187Z,2.40
2022-10-11T12:54:02.488Z,2.30
2022-10-11T12:56:48.957Z,2.70
2022-10-11T12:59:20.283Z,2.78
2022-10-11T13:01:54.146Z,2.40
2022-10-11T13:04:26.371Z,2.35
2022-10-11T13:06:56.640Z,2.53
2022-10-11T13:09:29.808Z,3.08
2022-10-11T13:12:04.052Z,2.78
2022-10-11T13:14:37.971Z,2.25
2022-10-11T13:17:09.549Z,2.60
2022-10-11T13:22:22.874Z,2.22
2022-10-11T13:24:51.063Z,3.28
2022-10-11T13:27:21.443Z,2.58
2022-10-11T13:29:52.718Z,2.85
2022-10-11T13:32:23.949Z,2.75
2022-10-11T13:37:30.885Z,1.77
2022-10-11T13:39:59.769Z,1.95
2022-10-11T13:42:31.680Z,2.42
2022-10-11T13:45:01.461Z,2.20
2022-10-11T13:47:31.399Z,1.90
2022-10-11T13:50:09.205Z,2.10
2022-10-11T13:52:37.054Z,1.55
2022-10-11T13:55:22.849Z,2.45
2022-10-11T13:57:52.198Z,2.05
2022-10-11T14:02:58.686Z,1.70
2022-10-11T14:05:30.750Z,2.22
2022-10-11T14:08:00.729Z,1.70
2022-10-11T14:10:29.425Z,2.40
2022-10-11T14:13:03.224Z,2.15
2022-10-11T14:15:34.531Z,2.15
2022-10-11T14:18:03.982Z,2.42
2022-10-11T14:20:38.643Z,2.08
2022-10-11T14:23:07.212Z,2.00
2022-10-11T14:25:37.916Z,2.10
2022-10-11T14:28:06.545Z,3.20
2022-10-11T14:30:35.678Z,2.15
2022-10-11T14:33:03.574Z,2.00
2022-10-11T14:35:35.491Z,2.10
2022-10-11T14:38:03.242Z,1.90
2022-10-11T14:40:32.638Z,2.83
2022-10-11T14:43:00.432Z,2.13
2022-10-11T14:45:28.479Z,2.42
2022-10-11T14:47:57.956Z,2.40
2022-10-11T14:50:40.363Z,2.13
2022-10-11T14:53:09.843Z,2.90
2022-10-11T14:55:38.926Z,2.63
2022-10-11T14:58:08.145Z,2.28
2022-10-11T15:03:09.417Z,2.10
2022-10-11T15:05:37.732Z,2.30
2022-10-11T15:08:07.185Z,2.72
2022-10-11T15:10:37.226Z,2.50
2022-10-11T15:13:06.972Z,2.75
2022-10-11T15:15:36.772Z,2.67
2022-10-11T15:18:08.128Z,2.08
2022-10-11T15:20:38.626Z,2.47
2022-10-11T15:23:07.766Z,2.67
2022-10-11T15:25:35.676Z,2.15
2022-10-11T15:28:03.425Z,2.47
2022-10-11T15:30:38.465Z,2.22
2022-10-11T15:33:10.768Z,2.45
2022-10-11T15:35:38.622Z,2.35
2022-10-11T15:38:06.380Z,2.10
2022-10-11T15:40:36.884Z,2.40
2022-10-11T15:43:05.429Z,1.85
2022-10-11T15:45:33.310Z,2.00
2022-10-11T15:48:01.194Z,2.50
2022-10-11T15:50:35.149Z,2.08
2022-10-11T15:53:04.208Z,2.28
2022-10-11T15:55:32.911Z,1.90
2022-10-11T15:58:01.417Z,2.08
2022-10-11T16:00:29.739Z,2.20
2022-10-11T16:02:58.965Z,2.37
2022-10-11T16:05:28.695Z,2.80
2022-10-11T16:07:57.847Z,2.40
2022-10-11T16:10:25.765Z,2.28
2022-10-11T16:12:53.637Z,2.20
2022-10-11T16:15:21.403Z,2.70
2022-10-11T16:17:49.801Z,2.20
2022-10-11T16:20:21.955Z,2.50
2022-10-11T16:22:50.139Z,2.35
2022-10-11T16:25:20.074Z,2.60
2022-10-11T16:27:48.031Z,2.70
2022-10-11T16:30:17.308Z,2.35
2022-10-11T16:35:14.212Z,2.85
2022-10-11T16:37:42.092Z,2.88
2022-10-11T16:40:11.719Z,2.90
2022-10-11T16:42:41.206Z,2.78
2022-10-11T16:45:12.917Z,3.40
2022-10-11T16:47:41.300Z,3.75
2022-10-11T16:50:10.740Z,3.03
2022-10-11T16:52:38.582Z,3.40
2022-10-11T16:55:07.534Z,4.53
2022-10-11T16:57:37.666Z,5.47
2022-10-11T17:00:09.542Z,4.78
2022-10-11T17:02:37.664Z,5.10
2022-10-11T17:05:06.467Z,4.75
2022-10-11T17:07:34.359Z,4.40
2022-10-11T17:10:02.447Z,6.70
2022-10-11T17:12:31.875Z,8.73
2022-10-11T17:14:59.743Z,4.95
2022-10-11T17:17:29.586Z,4.38
2022-10-11T17:19:57.407Z,4.47
2022-10-11T17:22:25.561Z,4.28
2022-10-11T17:24:53.346Z,3.20
2022-10-11T17:27:21.156Z,2.95
2022-10-11T17:29:48.956Z,3.38
2022-10-11T17:32:16.859Z,3.45
2022-10-11T17:34:46.012Z,3.70
2022-10-11T17:37:14.026Z,4.32
2022-10-11T17:39:41.859Z,3.85
2022-10-11T17:42:09.648Z,4.65
2022-10-11T17:44:37.565Z,6.18
2022-10-11T17:47:05.513Z,4.03
2022-10-11T17:49:33.386Z,4.70
2022-10-11T17:52:02.645Z,4.88
2022-10-11T17:54:30.441Z,5.97
2022-10-11T17:56:58.828Z,5.60
2022-10-11T17:59:28.659Z,5.40
2022-10-11T18:01:56.540Z,5.18
2022-10-11T18:04:29.481Z,5.68
2022-10-11T18:06:57.344Z,5.18
2022-10-11T18:09:27.173Z,4.75
2022-10-11T18:11:55.008Z,4.43
2022-10-11T18:14:22.805Z,5.43
2022-10-11T18:16:50.831Z,8.15
2022-10-11T18:19:18.721Z,7.50
2022-10-11T18:21:46.557Z,5.85
2022-10-11T18:24:16.773Z,14.52
2022-10-11T18:26:46.712Z,9.18
2022-10-11T18:29:14.930Z,5.90
2022-10-11T18:31:43.001Z,5.70
2022-10-11T18:34:13.809Z,19.08
2022-10-11T18:36:41.637Z,6.68
2022-10-11T18:39:12.838Z,5.70
2022-10-11T18:41:44.339Z,21.70
2022-10-11T18:44:15.630Z,14.50
2022-10-11T18:46:44.671Z,7.85
2022-10-11T18:49:13.411Z,7.65
2022-10-11T18:51:42.537Z,6.18
2022-10-11T18:54:15.232Z,19.08
2022-10-11T18:56:46.515Z,16.02
2022-10-11T18:59:15.735Z,7.53
2022-10-11T19:01:45.158Z,6.70
2022-10-11T19:04:15.874Z,5.90
2022-10-11T19:06:47.339Z,6.50
2022-10-11T19:09:21.307Z,6.50
2022-10-11T19:11:49.872Z,6.10
2022-10-11T19:14:21.122Z,6.85
2022-10-11T19:16:51.620Z,7.53
2022-10-11T19:19:21.141Z,7.10
2022-10-11T19:21:49.508Z,6.45
2022-10-11T19:24:18.586Z,6.77
2022-10-11T19:26:47.357Z,7.72
2022-10-11T19:29:18.664Z,7.80
2022-10-11T19:31:51.003Z,8.15
2022-10-11T19:34:19.482Z,8.10
2022-10-11T19:36:50.056Z,8.20
2022-10-11T19:39:19.508Z,8.40
2022-10-11T19:41:47.807Z,7.50
2022-10-11T19:44:16.296Z,7.60
2022-10-11T19:46:52.728Z,7.57
2022-10-11T19:49:24.907Z,7.78
2022-10-11T19:51:55.162Z,7.90
2022-10-11T19:54:23.212Z,7.03
2022-10-11T19:56:51.157Z,7.18
2022-10-11T19:59:20.349Z,8.27
2022-10-11T20:01:52.784Z,6.38
2022-10-11T20:04:47.482Z,8.25
2022-10-11T20:07:11.124Z,7.40
2022-10-11T20:09:38.964Z,8.43
2022-10-11T20:12:07.179Z,7.60
2022-10-11T20:14:35.057Z,7.38
2022-10-11T20:17:02.862Z,7.60
2022-10-11T20:19:32.058Z,7.07
2022-10-11T20:22:00.403Z,6.50
2022-10-11T20:24:32.191Z,6.77
2022-10-11T20:27:00.159Z,7.53
2022-10-11T20:29:29.233Z,7.38
2022-10-11T20:31:58.817Z,8.93
2022-10-11T20:34:27.569Z,8.10
2022-10-11T20:36:56.756Z,7.53
2022-10-11T20:39:24.770Z,7.40
2022-10-11T20:41:52.600Z,7.20
2022-10-11T20:44:20.416Z,6.57
2022-10-11T20:46:48.233Z,6.57
2022-10-11T20:49:16.020Z,7.60
2022-10-11T20:51:43.839Z,6.88
2022-10-11T20:54:13.430Z,6.38
2022-10-11T20:56:41.461Z,6.63
2022-10-11T20:59:09.500Z,7.20
2022-10-11T21:01:39.544Z,7.30
2022-10-11T21:04:18.509Z,7.43
2022-10-11T21:06:47.008Z,6.65
2022-10-11T21:09:17.070Z,7.53
2022-10-11T21:11:45.075Z,7.85
2022-10-11T21:14:12.872Z,7.07
2022-10-11T21:16:40.712Z,6.78
2022-10-11T21:19:08.634Z,7.15
2022-10-11T21:21:36.409Z,7.43
2022-10-11T21:24:04.235Z,7.38
2022-10-11T21:26:35.157Z,7.32
2022-10-11T21:29:04.086Z,6.80
2022-10-11T21:31:34.361Z,7.13
2022-10-11T21:34:02.641Z,6.93
2022-10-11T21:36:30.450Z,7.07
2022-10-11T21:38:58.218Z,6.93
2022-10-11T21:41:29.029Z,6.70
2022-10-11T21:43:59.291Z,6.47
2022-10-11T21:46:54.112Z,6.50
2022-10-11T21:51:44.305Z,6.97
2022-10-11T21:54:12.704Z,7.63
2022-10-11T21:56:40.568Z,6.87
2022-10-11T21:59:12.276Z,7.05
2022-10-11T22:01:41.662Z,7.07
2022-10-11T22:04:11.892Z,7.18
2022-10-11T22:06:40.248Z,6.75
2022-10-11T22:09:08.546Z,6.55
2022-10-11T22:11:36.523Z,6.65
2022-10-11T22:14:04.887Z,7.60
2022-10-11T22:16:35.681Z,6.57
2022-10-11T22:19:03.746Z,6.90
2022-10-11T22:21:31.578Z,8.55
2022-10-11T22:23:59.555Z,7.00
2022-10-11T22:26:30.532Z,6.47
2022-10-11T22:28:58.755Z,7.60
2022-10-11T22:31:26.512Z,8.15
2022-10-11T22:33:56.281Z,7.40
2022-10-11T22:36:25.111Z,8.15
2022-10-11T22:38:53.784Z,7.75
2022-10-11T22:41:22.181Z,7.90
2022-10-11T22:43:49.957Z,8.30
2022-10-11T22:46:18.173Z,8.10
2022-10-11T22:48:45.988Z,7.47
2022-10-11T22:51:15.423Z,6.82
2022-10-11T22:53:43.168Z,7.43
2022-10-11T22:56:11.524Z,6.93
2022-10-11T22:58:39.303Z,8.63
2022-10-11T23:01:08.284Z,7.38
2022-10-11T23:03:36.173Z,7.47
2022-10-11T23:06:04.143Z,7.75
2022-10-11T23:08:33.451Z,7.75
2022-10-11T23:13:30.931Z,7.35
2022-10-11T23:15:58.801Z,7.10
2022-10-11T23:18:26.616Z,7.32
2022-10-11T23:20:54.386Z,8.63
2022-10-11T23:23:22.168Z,8.13
2022-10-11T23:26:01.211Z,7.53
2022-10-11T23:28:29.075Z,7.85
2022-10-11T23:30:56.969Z,6.90
2022-10-11T23:33:24.821Z,6.95
2022-10-11T23:35:52.611Z,7.30
2022-10-11T23:38:20.607Z,7.15
2022-10-11T23:40:48.428Z,6.95
2022-10-11T23:43:17.577Z,7.38
2022-10-11T23:45:45.678Z,7.10
2022-10-11T23:48:13.547Z,6.70
2022-10-11T23:50:41.334Z,6.43
2022-10-11T23:53:09.076Z,7.00
2022-10-11T23:55:36.851Z,6.88
2022-10-11T23:58:04.630Z,6.30
